Time;durP1;ratioP1;P1;durP2;ratioP2;P2;SDS_P1;SDS_P2;PMS_P1;PMS_P2;Temp;Humidity;BMP_temperature;BMP_pressure;BME280_temperature;BME280_humidity;BME280_pressure;Samples;Min_cycle;Max_cycle;Signal;HPM_P1;HPM_P2
2022/07/31 00:02:19;;;;;;;;;;;23.70;57.10;;;;;;5047316;28;19920;-69
2022/07/31 00:04:44;;;;;;;;;;;23.60;57.10;;;;;;5050181;28;19912;-69
2022/07/31 00:07:10;;;;;;;;;;;23.60;57.10;;;;;;5048601;28;19923;-69
2022/07/31 00:09:36;;;;;;;;;;;23.60;57.30;;;;;;5048939;28;19920;-69
2022/07/31 00:12:02;;;;;;;;;;;23.60;57.40;;;;;;5049996;28;19912;-69
2022/07/31 00:14:28;;;;;;;;;;;23.60;57.50;;;;;;5050080;28;19916;-69
2022/07/31 00:16:53;;;;;;;;;;;23.50;57.50;;;;;;5049463;28;19975;-69
2022/07/31 00:19:19;;;;;;;;;;;23.50;57.50;;;;;;5049451;28;20015;-69
2022/07/31 00:21:45;;;;;;;;;;;23.50;57.70;;;;;;5049548;28;19916;-69
2022/07/31 00:24:10;;;;;;;;;;;23.40;57.80;;;;;;5050689;28;20287;-69
2022/07/31 00:26:36;;;;;;;;;;;23.40;58.00;;;;;;5041979;28;19936;-69
2022/07/31 00:29:02;;;;;;;;;;;23.40;58.10;;;;;;5049668;28;19919;-69
2022/07/31 00:31:27;;;;;;;;;;;23.30;58.10;;;;;;5047662;28;19917;-69
2022/07/31 00:33:53;;;;;;;;;;;23.30;58.10;;;;;;5049128;28;19924;-69
2022/07/31 00:36:18;;;;;;;;;;;23.30;58.30;;;;;;5049401;28;20286;-69
2022/07/31 00:38:44;;;;;;;;;;;23.20;58.40;;;;;;5050514;28;19913;-69
2022/07/31 00:41:10;;;;;;;;;;;23.20;58.50;;;;;;5045811;28;19982;-69
2022/07/31 00:43:35;;;;;;;;;;;23.10;58.90;;;;;;5049807;28;20409;-69
2022/07/31 00:46:01;;;;;;;;;;;23.10;59.20;;;;;;5050528;28;19945;-69
2022/07/31 00:48:26;;;;;;;;;;;23.00;59.10;;;;;;5045532;28;20042;-69
2022/07/31 00:50:52;;;;;;;;;;;23.00;59.20;;;;;;5047291;28;20006;-69
2022/07/31 00:53:17;;;;;;;;;;;23.00;59.10;;;;;;5049482;28;19917;-69
2022/07/31 00:55:43;;;;;;;;;;;23.00;59.20;;;;;;5049351;28;19913;-69
2022/07/31 00:58:08;;;;;;;;;;;23.00;59.30;;;;;;5064382;28;19913;-69
2022/07/31 01:00:34;;;;;;;;;;;23.00;59.60;;;;;;5046055;28;19909;-69
2022/07/31 01:03:00;;;;;;;;;;;22.90;59.70;;;;;;5050689;28;19994;-69
2022/07/31 01:05:25;;;;;;;;;;;22.90;59.90;;;;;;5052672;28;19913;-68
2022/07/31 01:07:51;;;;;;;;;;;22.80;60.00;;;;;;5053289;28;19919;-69
2022/07/31 01:10:39;;;;;;;;;;;22.90;60.00;;;;;;5052441;28;20007;-69
2022/07/31 01:13:08;;;;;;;;;;;22.80;60.10;;;;;;5063102;28;19920;-69
2022/07/31 01:15:36;;;;;;;;;;;22.80;60.10;;;;;;5052813;28;19909;-69
2022/07/31 01:18:03;;;;;;;;;;;22.80;60.20;;;;;;5051909;28;19909;-69
2022/07/31 01:20:28;;;;;;;;;;;22.80;60.40;;;;;;5053064;28;19943;-69
2022/07/31 01:23:32;;;;;;;;;;;22.70;60.40;;;;;;5054474;28;20338;-69
2022/07/31 01:26:07;;;;;;;;;;;22.70;60.60;;;;;;5011247;28;20008;-69
2022/07/31 01:28:35;;;;;;;;;;;22.60;60.50;;;;;;5010045;28;20349;-69
2022/07/31 01:31:05;;;;;;;;;;;22.50;60.70;;;;;;5033572;28;19913;-69
2022/07/31 01:33:33;;;;;;;;;;;22.50;60.90;;;;;;5051949;28;19932;-69
2022/07/31 01:36:02;;;;;;;;;;;22.40;61.00;;;;;;5053163;28;19908;-69
2022/07/31 01:38:34;;;;;;;;;;;22.40;61.00;;;;;;5052812;28;19917;-69
2022/07/31 01:41:01;;;;;;;;;;;22.40;60.90;;;;;;5053120;28;19920;-69
2022/07/31 01:43:36;;;;;;;;;;;22.40;61.10;;;;;;5051942;28;20003;-69
2022/07/31 01:46:03;;;;;;;;;;;22.40;61.10;;;;;;5052643;28;19915;-69
2022/07/31 01:48:32;;;;;;;;;;;22.40;61.20;;;;;;5051734;28;19916;-69
2022/07/31 01:50:58;;;;;;;;;;;22.40;61.30;;;;;;5053113;28;19947;-69
2022/07/31 01:53:25;;;;;;;;;;;22.30;61.40;;;;;;5048690;28;19913;-69
2022/07/31 01:55:52;;;;;;;;;;;22.30;61.50;;;;;;5043360;28;20011;-69
2022/07/31 01:58:19;;;;;;;;;;;22.30;61.70;;;;;;5049330;28;19935;-69
2022/07/31 02:00:45;;;;;;;;;;;22.20;61.80;;;;;;5048135;28;19909;-69
2022/07/31 02:03:12;;;;;;;;;;;22.20;61.90;;;;;;5052771;28;19913;-69
2022/07/31 02:05:39;;;;;;;;;;;22.20;62.00;;;;;;5051496;28;19955;-69
2022/07/31 02:08:05;;;;;;;;;;;22.20;62.10;;;;;;5065810;28;19959;-69
2022/07/31 02:10:31;;;;;;;;;;;22.20;62.20;;;;;;5046990;28;19917;-69
2022/07/31 02:12:57;;;;;;;;;;;22.10;62.10;;;;;;5052984;28;19920;-69
2022/07/31 02:15:23;;;;;;;;;;;22.10;62.10;;;;;;5066580;28;19916;-69
2022/07/31 02:17:50;;;;;;;;;;;22.20;62.30;;;;;;5053509;28;20301;-69
2022/07/31 02:20:16;;;;;;;;;;;22.20;62.30;;;;;;5047465;28;20376;-69
2022/07/31 02:22:42;;;;;;;;;;;22.20;62.30;;;;;;5053383;28;20355;-69
2022/07/31 02:25:07;;;;;;;;;;;22.20;62.40;;;;;;5052220;28;19920;-69
2022/07/31 02:27:33;;;;;;;;;;;22.20;62.30;;;;;;5052691;28;20702;-69
2022/07/31 02:30:01;;;;;;;;;;;22.10;62.50;;;;;;5068282;28;19908;-69
2022/07/31 02:32:27;;;;;;;;;;;22.10;62.70;;;;;;5048642;28;19916;-69
2022/07/31 02:34:57;;;;;;;;;;;22.10;62.80;;;;;;5045881;28;19916;-69
2022/07/31 02:37:23;;;;;;;;;;;22.00;62.80;;;;;;5052156;28;19908;-70
2022/07/31 02:39:50;;;;;;;;;;;22.00;62.90;;;;;;5051407;28;20375;-69
2022/07/31 02:42:16;;;;;;;;;;;22.00;63.00;;;;;;5052277;28;19920;-69
2022/07/31 02:44:42;;;;;;;;;;;22.00;62.90;;;;;;5047289;28;19920;-69
2022/07/31 02:47:07;;;;;;;;;;;22.00;62.90;;;;;;5051641;28;19951;-69
2022/07/31 02:49:33;;;;;;;;;;;22.00;63.00;;;;;;5051459;28;19917;-70
2022/07/31 02:51:59;;;;;;;;;;;22.00;63.00;;;;;;5047366;28;19913;-70
2022/07/31 02:54:25;;;;;;;;;;;22.00;62.90;;;;;;5049744;28;20356;-69
2022/07/31 02:56:52;;;;;;;;;;;22.00;62.90;;;;;;5050565;28;19924;-69
2022/07/31 02:59:17;;;;;;;;;;;22.00;63.00;;;;;;5042058;28;20015;-69
2022/07/31 03:01:43;;;;;;;;;;;22.00;63.10;;;;;;5064745;28;20032;-70
2022/07/31 03:04:09;;;;;;;;;;;21.90;63.10;;;;;;5047465;28;19917;-70
2022/07/31 03:06:34;;;;;;;;;;;22.00;63.30;;;;;;5065997;28;19919;-69
2022/07/31 03:09:00;;;;;;;;;;;21.90;63.40;;;;;;5042449;28;20020;-70
2022/07/31 03:11:25;;;;;;;;;;;21.90;63.60;;;;;;5050932;28;20283;-70
2022/07/31 03:13:52;;;;;;;;;;;21.90;63.70;;;;;;5050897;28;19968;-70
2022/07/31 03:16:18;;;;;;;;;;;21.90;63.70;;;;;;5051214;28;20008;-70
2022/07/31 03:18:44;;;;;;;;;;;21.90;63.70;;;;;;5051845;28;19956;-70
2022/07/31 03:21:10;;;;;;;;;;;21.90;63.70;;;;;;5051437;28;19909;-69
2022/07/31 03:23:36;;;;;;;;;;;21.90;63.70;;;;;;5063681;28;20245;-70
2022/07/31 03:26:02;;;;;;;;;;;21.80;63.80;;;;;;5047381;28;19916;-69
2022/07/31 03:28:28;;;;;;;;;;;21.80;63.70;;;;;;5066215;28;19915;-69
2022/07/31 03:30:54;;;;;;;;;;;21.80;63.70;;;;;;5067252;28;19909;-70
2022/07/31 03:33:20;;;;;;;;;;;21.90;63.70;;;;;;5066177;28;20040;-69
2022/07/31 03:35:46;;;;;;;;;;;21.90;63.80;;;;;;5046729;28;19916;-70
2022/07/31 03:38:12;;;;;;;;;;;21.80;63.80;;;;;;5036330;28;19909;-70
2022/07/31 03:40:37;;;;;;;;;;;21.80;63.90;;;;;;5041169;28;19924;-69
2022/07/31 03:43:04;;;;;;;;;;;21.80;64.00;;;;;;5037441;28;20000;-70
2022/07/31 03:45:30;;;;;;;;;;;21.80;64.10;;;;;;5039539;28;20011;-70
2022/07/31 03:47:56;;;;;;;;;;;21.80;64.30;;;;;;5040123;28;20497;-69
2022/07/31 03:50:22;;;;;;;;;;;21.80;64.30;;;;;;5045698;28;20013;-69
2022/07/31 03:52:48;;;;;;;;;;;21.70;64.40;;;;;;5047332;28;19917;-70
2022/07/31 03:55:14;;;;;;;;;;;21.80;64.50;;;;;;5036674;28;20367;-70
2022/07/31 03:57:41;;;;;;;;;;;21.80;64.50;;;;;;5048726;28;19917;-69
2022/07/31 04:00:07;;;;;;;;;;;21.70;64.60;;;;;;5038382;28;19923;-70
2022/07/31 04:02:33;;;;;;;;;;;21.70;64.60;;;;;;5043106;28;20339;-69
2022/07/31 04:04:58;;;;;;;;;;;21.70;64.70;;;;;;5042374;28;20003;-69
2022/07/31 04:07:24;;;;;;;;;;;21.70;64.70;;;;;;5038769;28;19912;-69
2022/07/31 04:09:50;;;;;;;;;;;21.80;64.60;;;;;;5044052;28;20123;-69
2022/07/31 04:12:15;;;;;;;;;;;21.70;64.60;;;;;;5045180;28;19924;-69
2022/07/31 04:14:41;;;;;;;;;;;21.70;64.60;;;;;;5042257;28;20473;-69
2022/07/31 04:17:06;;;;;;;;;;;21.70;64.70;;;;;;5044763;28;19959;-69
2022/07/31 04:19:32;;;;;;;;;;;21.70;64.70;;;;;;5043055;28;19956;-69
2022/07/31 04:21:57;;;;;;;;;;;21.70;64.80;;;;;;5049915;28;19963;-69
2022/07/31 04:24:24;;;;;;;;;;;21.70;64.90;;;;;;5037350;28;20364;-69
2022/07/31 04:26:49;;;;;;;;;;;21.70;65.00;;;;;;5036014;28;19917;-69
2022/07/31 04:29:15;;;;;;;;;;;21.70;65.30;;;;;;5040136;28;19919;-70
2022/07/31 04:31:41;;;;;;;;;;;21.70;65.30;;;;;;5046576;28;19999;-69
2022/07/31 04:34:06;;;;;;;;;;;21.70;65.40;;;;;;5043390;28;19916;-69
2022/07/31 04:36:32;;;;;;;;;;;21.70;65.60;;;;;;5040572;28;20014;-69
2022/07/31 04:38:58;;;;;;;;;;;21.70;65.60;;;;;;5050411;28;19917;-69
2022/07/31 04:41:24;;;;;;;;;;;21.70;65.60;;;;;;5047930;28;20315;-69
2022/07/31 04:43:49;;;;;;;;;;;21.80;65.70;;;;;;5042098;28;20362;-69
2022/07/31 04:46:15;;;;;;;;;;;21.70;65.60;;;;;;5045616;28;19944;-69
2022/07/31 04:48:40;;;;;;;;;;;21.80;65.60;;;;;;5059535;28;19912;-69
2022/07/31 04:51:06;;;;;;;;;;;21.80;65.50;;;;;;5042343;28;19909;-69
2022/07/31 04:53:31;;;;;;;;;;;21.80;65.40;;;;;;5048893;28;19919;-69
2022/07/31 04:58:41;;;;;;;;;;;21.90;65.70;;;;;;5049948;28;20383;-70
2022/07/31 05:01:06;;;;;;;;;;;21.90;65.60;;;;;;5046797;28;19921;-70
2022/07/31 05:03:32;;;;;;;;;;;22.00;65.60;;;;;;5049651;28;20003;-69
2022/07/31 05:06:07;;;;;;;;;;;22.00;65.40;;;;;;5049154;28;19908;-69
2022/07/31 05:08:33;;;;;;;;;;;22.10;65.50;;;;;;5049780;28;19915;-70
2022/07/31 05:13:42;;;;;;;;;;;22.10;66.10;;;;;;5049485;28;20377;-69
2022/07/31 05:16:10;;;;;;;;;;;22.10;66.20;;;;;;5065639;28;19948;-69
2022/07/31 05:18:35;;;;;;;;;;;22.10;66.80;;;;;;5050730;28;19905;-69
2022/07/31 05:21:01;;;;;;;;;;;22.10;67.00;;;;;;5050343;28;19913;-69
2022/07/31 05:23:26;;;;;;;;;;;22.00;67.20;;;;;;5069778;28;19991;-69
2022/07/31 05:25:52;;;;;;;;;;;22.00;67.60;;;;;;5059356;28;19952;-70
2022/07/31 05:28:17;;;;;;;;;;;22.00;67.60;;;;;;5049635;28;20357;-69
2022/07/31 05:30:43;;;;;;;;;;;22.00;67.50;;;;;;5049292;28;19978;-69
2022/07/31 05:33:09;;;;;;;;;;;22.10;67.50;;;;;;5050482;28;20032;-70
2022/07/31 05:35:34;;;;;;;;;;;22.10;67.60;;;;;;5065155;28;19948;-70
2022/07/31 05:38:00;;;;;;;;;;;22.10;67.20;;;;;;5065612;28;20016;-69
2022/07/31 05:40:25;;;;;;;;;;;22.20;67.10;;;;;;5047396;28;19917;-70
2022/07/31 05:42:51;;;;;;;;;;;22.30;67.30;;;;;;5059109;28;19908;-69
2022/07/31 05:45:16;;;;;;;;;;;22.30;67.20;;;;;;5047614;28;20414;-69
2022/07/31 05:47:42;;;;;;;;;;;22.30;67.20;;;;;;5049573;28;19915;-70
2022/07/31 05:50:08;;;;;;;;;;;22.40;67.10;;;;;;5049144;28;20375;-70
2022/07/31 05:52:33;;;;;;;;;;;22.40;67.20;;;;;;5053299;28;20406;-70
2022/07/31 05:54:59;;;;;;;;;;;22.40;67.10;;;;;;5052707;28;19917;-69
2022/07/31 05:57:24;;;;;;;;;;;22.30;67.30;;;;;;5068269;28;19912;-70
2022/07/31 05:59:50;;;;;;;;;;;22.40;67.40;;;;;;5048001;28;20358;-70
2022/07/31 06:02:15;;;;;;;;;;;22.40;67.90;;;;;;5047753;28;20003;-70
2022/07/31 06:04:41;;;;;;;;;;;22.40;67.00;;;;;;5067134;28;20286;-70
2022/07/31 06:07:06;;;;;;;;;;;22.40;67.00;;;;;;5052608;28;20330;-70
2022/07/31 06:09:32;;;;;;;;;;;22.30;67.10;;;;;;5049210;28;19917;-69
2022/07/31 06:11:57;;;;;;;;;;;22.20;67.30;;;;;;5044007;28;19984;-70
2022/07/31 06:14:23;;;;;;;;;;;22.10;67.40;;;;;;5051428;28;19974;-70
2022/07/31 06:16:49;;;;;;;;;;;22.10;67.70;;;;;;5042049;28;19913;-70
2022/07/31 06:19:14;;;;;;;;;;;22.00;67.90;;;;;;5052554;28;20004;-69
2022/07/31 06:21:40;;;;;;;;;;;21.90;68.30;;;;;;5052172;28;19917;-70
2022/07/31 06:24:06;;;;;;;;;;;21.80;68.20;;;;;;5052555;28;19921;-69
2022/07/31 06:26:31;;;;;;;;;;;21.80;68.20;;;;;;5051321;28;19943;-70
2022/07/31 06:28:57;;;;;;;;;;;21.90;68.20;;;;;;5067964;28;19939;-69
2022/07/31 06:31:22;;;;;;;;;;;21.90;68.20;;;;;;5052135;28;19923;-69
2022/07/31 06:33:49;;;;;;;;;;;21.90;68.30;;;;;;5049648;28;19916;-69
2022/07/31 06:36:15;;;;;;;;;;;21.90;68.30;;;;;;5050718;28;19916;-69
2022/07/31 06:38:40;;;;;;;;;;;21.90;68.40;;;;;;5052266;28;20417;-69
2022/07/31 06:41:06;;;;;;;;;;;21.90;68.20;;;;;;5051797;28;19921;-70
2022/07/31 06:43:31;;;;;;;;;;;21.90;68.20;;;;;;5052721;28;20015;-69
2022/07/31 06:45:57;;;;;;;;;;;21.90;68.40;;;;;;5051785;28;19947;-70
2022/07/31 06:48:22;;;;;;;;;;;22.00;68.50;;;;;;5051814;28;19999;-70
2022/07/31 06:50:48;;;;;;;;;;;22.00;68.50;;;;;;5052050;28;19913;-71
2022/07/31 06:53:13;;;;;;;;;;;22.00;68.50;;;;;;5052219;28;19911;-71
2022/07/31 06:55:49;;;;;;;;;;;22.10;68.50;;;;;;5052457;28;20280;-71
2022/07/31 06:58:15;;;;;;;;;;;22.10;68.60;;;;;;5050801;28;19909;-70
2022/07/31 07:00:40;;;;;;;;;;;22.20;68.40;;;;;;5051895;28;19924;-69
2022/07/31 07:03:06;;;;;;;;;;;22.30;68.20;;;;;;5067606;28;20000;-70
2022/07/31 07:05:31;;;;;;;;;;;22.30;68.10;;;;;;5052191;28;19917;-69
2022/07/31 07:07:57;;;;;;;;;;;22.30;68.00;;;;;;5067406;28;19995;-70
2022/07/31 07:10:22;;;;;;;;;;;22.20;68.20;;;;;;5048997;28;20016;-70
2022/07/31 07:12:48;;;;;;;;;;;22.20;68.20;;;;;;5052072;28;19984;-70
2022/07/31 07:15:14;;;;;;;;;;;22.10;68.20;;;;;;5052947;28;19915;-71
2022/07/31 07:17:39;;;;;;;;;;;22.20;68.20;;;;;;5044867;28;19991;-70
2022/07/31 07:20:08;;;;;;;;;;;22.20;68.10;;;;;;5047228;28;19913;-70
2022/07/31 07:22:33;;;;;;;;;;;22.20;68.00;;;;;;5053164;28;19969;-70
2022/07/31 07:24:59;;;;;;;;;;;22.30;68.00;;;;;;5051881;28;19986;-69
2022/07/31 07:27:25;;;;;;;;;;;22.30;67.90;;;;;;5050979;28;19917;-68
2022/07/31 07:29:50;;;;;;;;;;;22.30;68.10;;;;;;5052558;28;19912;-71
2022/07/31 07:32:16;;;;;;;;;;;22.20;68.40;;;;;;5050807;28;20291;-70
2022/07/31 07:34:41;;;;;;;;;;;22.10;68.60;;;;;;5051187;28;19905;-70
2022/07/31 07:37:07;;;;;;;;;;;22.10;68.60;;;;;;5046757;28;19916;-70
2022/07/31 07:39:33;;;;;;;;;;;22.20;68.40;;;;;;5050952;28;20028;-70
2022/07/31 07:41:58;;;;;;;;;;;22.20;68.30;;;;;;5051338;28;19952;-70
2022/07/31 07:44:24;;;;;;;;;;;22.20;68.40;;;;;;5051098;28;19955;-70
2022/07/31 07:46:49;;;;;;;;;;;22.20;69.10;;;;;;5049917;28;19920;-70
2022/07/31 07:49:15;;;;;;;;;;;22.20;69.30;;;;;;5044517;28;19959;-70
2022/07/31 07:51:41;;;;;;;;;;;22.20;69.30;;;;;;5050828;28;19948;-70
2022/07/31 07:54:06;;;;;;;;;;;22.20;69.30;;;;;;5067748;28;19909;-70
2022/07/31 07:56:32;;;;;;;;;;;22.20;69.30;;;;;;5050268;28;19919;-70
2022/07/31 07:58:57;;;;;;;;;;;22.20;69.30;;;;;;5050251;28;20349;-70
2022/07/31 08:01:25;;;;;;;;;;;22.10;69.30;;;;;;5050181;28;19921;-70
2022/07/31 08:03:50;;;;;;;;;;;22.10;69.20;;;;;;5051389;28;19959;-69
2022/07/31 08:06:16;;;;;;;;;;;22.20;69.30;;;;;;5050634;28;19916;-69
2022/07/31 08:08:41;;;;;;;;;;;22.10;69.60;;;;;;5050309;28;19974;-70
2022/07/31 08:11:07;;;;;;;;;;;22.10;69.70;;;;;;5050093;28;19939;-69
2022/07/31 08:13:33;;;;;;;;;;;22.10;69.80;;;;;;5050420;28;19924;-69
2022/07/31 08:15:58;;;;;;;;;;;22.20;69.80;;;;;;5047649;28;19969;-69
2022/07/31 08:18:24;;;;;;;;;;;22.20;69.60;;;;;;5064881;28;19909;-69
2022/07/31 08:20:50;;;;;;;;;;;22.30;69.40;;;;;;5048683;28;20414;-69
2022/07/31 08:23:15;;;;;;;;;;;22.40;69.20;;;;;;5049951;28;20356;-70
2022/07/31 08:25:41;;;;;;;;;;;22.50;69.60;;;;;;5065243;28;19923;-69
2022/07/31 08:28:06;;;;;;;;;;;22.40;69.60;;;;;;5050982;28;20283;-69
2022/07/31 08:30:32;;;;;;;;;;;22.40;69.60;;;;;;5050247;28;19905;-69
2022/07/31 08:32:57;;;;;;;;;;;22.30;69.80;;;;;;5041649;28;19920;-69
2022/07/31 08:35:23;;;;;;;;;;;22.30;70.10;;;;;;5050897;28;20297;-69
2022/07/31 08:37:48;;;;;;;;;;;22.30;70.30;;;;;;5043641;28;19916;-70
2022/07/31 08:40:16;;;;;;;;;;;22.30;70.30;;;;;;5049405;28;20391;-70
2022/07/31 08:42:43;;;;;;;;;;;22.40;70.20;;;;;;5057441;28;19912;-69
2022/07/31 08:45:09;;;;;;;;;;;22.50;69.90;;;;;;5047873;28;20360;-70
2022/07/31 08:47:34;;;;;;;;;;;22.60;69.60;;;;;;5040413;28;19909;-70
2022/07/31 08:50:00;;;;;;;;;;;22.70;69.40;;;;;;5065560;28;19909;-70
2022/07/31 08:52:26;;;;;;;;;;;22.80;69.20;;;;;;5054760;28;19951;-70
2022/07/31 08:54:52;;;;;;;;;;;22.90;69.00;;;;;;5050703;28;19913;-70
2022/07/31 08:57:18;;;;;;;;;;;23.10;68.80;;;;;;5049806;28;19909;-70
2022/07/31 08:59:43;;;;;;;;;;;23.10;68.60;;;;;;5048396;28;20016;-68
2022/07/31 09:02:10;;;;;;;;;;;23.20;68.30;;;;;;5043290;28;20371;-68
2022/07/31 09:04:35;;;;;;;;;;;23.30;68.00;;;;;;5039720;28;19923;-68
2022/07/31 09:07:01;;;;;;;;;;;23.50;68.00;;;;;;5043680;28;19916;-68
2022/07/31 09:09:27;;;;;;;;;;;23.50;67.60;;;;;;5037698;28;19923;-68
2022/07/31 09:11:53;;;;;;;;;;;23.60;67.40;;;;;;5041852;28;19962;-68
2022/07/31 09:14:33;;;;;;;;;;;23.70;67.10;;;;;;5045243;28;19929;-68
2022/07/31 09:17:00;;;;;;;;;;;23.80;66.70;;;;;;5041776;28;19913;-68
2022/07/31 09:19:38;;;;;;;;;;;23.70;66.60;;;;;;5049317;28;19913;-69
2022/07/31 09:22:04;;;;;;;;;;;23.70;66.70;;;;;;5051695;28;19913;-69
2022/07/31 09:24:31;;;;;;;;;;;23.60;66.80;;;;;;5046543;28;20450;-69
2022/07/31 09:27:04;;;;;;;;;;;23.60;67.00;;;;;;5063717;28;19920;-68
2022/07/31 09:29:36;;;;;;;;;;;23.60;67.10;;;;;;5043815;28;19917;-69
2022/07/31 09:32:15;;;;;;;;;;;23.70;67.10;;;;;;5066057;28;19909;-69
2022/07/31 09:34:42;;;;;;;;;;;23.60;67.30;;;;;;5058604;28;20279;-69
2022/07/31 09:37:27;;;;;;;;;;;23.70;67.20;;;;;;5066410;28;19913;-72
2022/07/31 09:39:54;;;;;;;;;;;23.80;67.20;;;;;;5050486;28;19919;-70
2022/07/31 09:42:20;;;;;;;;;;;23.80;67.30;;;;;;5065691;28;19999;-69
2022/07/31 09:44:47;;;;;;;;;;;23.80;67.50;;;;;;5049714;28;20039;-70
2022/07/31 09:47:39;;;;;;;;;;;23.70;67.70;;;;;;5051217;28;19913;-69
2022/07/31 09:50:04;;;;;;;;;;;23.80;67.60;;;;;;5046156;28;19916;-70
2022/07/31 09:52:30;;;;;;;;;;;23.90;67.50;;;;;;5068258;28;20497;-69
2022/07/31 09:55:00;;;;;;;;;;;23.90;67.70;;;;;;5045952;28;19939;-69
2022/07/31 09:57:26;;;;;;;;;;;23.90;67.90;;;;;;5043439;28;19912;-69
2022/07/31 09:59:51;;;;;;;;;;;23.90;67.80;;;;;;5045349;28;19913;-70
2022/07/31 10:02:18;;;;;;;;;;;23.90;67.80;;;;;;5048888;28;19913;-69
2022/07/31 10:04:45;;;;;;;;;;;23.80;67.80;;;;;;5047503;28;19913;-70
2022/07/31 10:07:11;;;;;;;;;;;23.80;68.10;;;;;;5045566;28;19917;-69
2022/07/31 10:09:38;;;;;;;;;;;23.70;68.50;;;;;;5048896;28;20291;-69
2022/07/31 10:12:04;;;;;;;;;;;23.60;69.00;;;;;;5046730;28;19928;-68
2022/07/31 10:14:31;;;;;;;;;;;23.60;69.30;;;;;;5043381;28;19954;-69
2022/07/31 10:16:58;;;;;;;;;;;23.60;69.20;;;;;;5044564;28;19919;-68
2022/07/31 10:19:26;;;;;;;;;;;23.70;69.40;;;;;;5043288;28;20386;-68
2022/07/31 10:21:56;;;;;;;;;;;23.80;70.00;;;;;;5055208;28;20371;-68
2022/07/31 10:24:22;;;;;;;;;;;23.70;70.70;;;;;;5046517;28;19959;-68
2022/07/31 10:26:47;;;;;;;;;;;23.70;71.70;;;;;;5066284;28;19928;-68
2022/07/31 10:29:14;;;;;;;;;;;23.70;71.40;;;;;;5046070;28;19917;-68
2022/07/31 10:31:40;;;;;;;;;;;23.70;71.30;;;;;;5051181;28;20245;-69
2022/07/31 10:34:06;;;;;;;;;;;23.70;71.80;;;;;;5049248;28;19917;-70
2022/07/31 10:36:36;;;;;;;;;;;23.70;72.20;;;;;;5041309;28;19939;-69
2022/07/31 10:39:09;;;;;;;;;;;23.60;72.30;;;;;;5044021;28;19916;-69
2022/07/31 10:41:43;;;;;;;;;;;23.70;72.30;;;;;;5043701;28;19978;-69
2022/07/31 10:44:12;;;;;;;;;;;23.70;72.40;;;;;;5048031;28;19917;-69
2022/07/31 10:46:37;;;;;;;;;;;23.60;72.40;;;;;;5044329;28;19913;-69
2022/07/31 10:49:03;;;;;;;;;;;23.70;72.70;;;;;;5043322;28;19939;-69
2022/07/31 10:51:30;;;;;;;;;;;23.70;72.80;;;;;;5044905;28;19944;-68
2022/07/31 10:53:57;;;;;;;;;;;23.60;73.00;;;;;;5038732;28;19919;-68
2022/07/31 10:56:23;;;;;;;;;;;23.60;73.30;;;;;;5047048;28;19917;-70
2022/07/31 10:58:53;;;;;;;;;;;23.70;73.70;;;;;;5046481;28;20347;-70
2022/07/31 11:01:18;;;;;;;;;;;23.90;73.30;;;;;;5045947;28;19919;-70
2022/07/31 11:03:45;;;;;;;;;;;24.00;72.90;;;;;;5043101;28;19916;-70
2022/07/31 11:06:12;;;;;;;;;;;24.00;72.50;;;;;;5049170;28;19940;-70
2022/07/31 11:08:45;;;;;;;;;;;24.00;72.40;;;;;;5061179;28;19955;-70
2022/07/31 11:11:11;;;;;;;;;;;24.00;72.60;;;;;;5049714;28;20087;-70
2022/07/31 11:13:46;;;;;;;;;;;23.90;72.50;;;;;;5051272;28;20370;-70
2022/07/31 11:16:12;;;;;;;;;;;23.90;72.70;;;;;;5051735;28;19905;-70
2022/07/31 11:18:37;;;;;;;;;;;23.90;72.60;;;;;;5050329;28;19919;-70
2022/07/31 11:21:04;;;;;;;;;;;23.80;72.40;;;;;;5050370;28;19920;-70
2022/07/31 11:23:31;;;;;;;;;;;23.80;72.50;;;;;;5050111;28;20073;-70
2022/07/31 11:26:00;;;;;;;;;;;23.70;73.20;;;;;;5050981;28;20082;-70
2022/07/31 11:28:26;;;;;;;;;;;23.70;72.60;;;;;;5051820;28;20038;-70
2022/07/31 11:30:52;;;;;;;;;;;23.70;72.90;;;;;;5048842;28;19948;-70
2022/07/31 11:33:39;;;;;;;;;;;23.70;73.30;;;;;;5046612;28;19905;-70
2022/07/31 11:36:16;;;;;;;;;;;23.80;73.30;;;;;;5047174;28;19905;-69
2022/07/31 11:38:43;;;;;;;;;;;23.90;73.40;;;;;;5050272;28;19905;-69
2022/07/31 11:41:09;;;;;;;;;;;23.80;73.40;;;;;;5054954;28;19913;-69
2022/07/31 11:43:36;;;;;;;;;;;23.80;73.60;;;;;;5053944;28;19969;-69
2022/07/31 11:46:02;;;;;;;;;;;23.80;73.80;;;;;;5066172;28;19909;-68
2022/07/31 11:48:31;;;;;;;;;;;23.90;74.10;;;;;;5031657;28;20241;-68
2022/07/31 11:50:57;;;;;;;;;;;24.00;74.40;;;;;;5066284;28;19987;-68
2022/07/31 11:53:23;;;;;;;;;;;23.90;74.40;;;;;;5041494;28;20693;-68
2022/07/31 11:55:50;;;;;;;;;;;23.90;74.30;;;;;;5049512;28;19919;-69
2022/07/31 11:58:17;;;;;;;;;;;23.90;74.40;;;;;;5050858;28;20042;-68
2022/07/31 12:00:48;;;;;;;;;;;23.90;74.40;;;;;;5050703;28;19962;-68
2022/07/31 12:03:15;;;;;;;;;;;23.90;74.40;;;;;;5037451;28;19913;-68
2022/07/31 12:05:44;;;;;;;;;;;24.00;74.40;;;;;;5050238;28;19909;-67
2022/07/31 12:08:11;;;;;;;;;;;24.40;73.80;;;;;;5050807;28;19909;-68
2022/07/31 12:10:37;;;;;;;;;;;24.80;73.00;;;;;;5061407;28;19904;-67
2022/07/31 12:13:03;;;;;;;;;;;25.10;72.20;;;;;;5049256;28;19916;-68
2022/07/31 12:15:28;;;;;;;;;;;25.30;71.40;;;;;;5050460;28;19935;-68
2022/07/31 12:18:01;;;;;;;;;;;25.30;71.10;;;;;;5048410;28;19912;-69
2022/07/31 12:20:29;;;;;;;;;;;25.20;70.10;;;;;;5048273;28;19905;-69
2022/07/31 12:23:01;;;;;;;;;;;25.00;70.40;;;;;;5046127;28;19909;-69
2022/07/31 12:25:26;;;;;;;;;;;24.80;70.80;;;;;;5045268;28;19923;-68
2022/07/31 12:27:53;;;;;;;;;;;24.70;71.50;;;;;;5037060;28;19909;-69
2022/07/31 12:30:18;;;;;;;;;;;24.60;71.50;;;;;;5039310;28;19917;-70
2022/07/31 12:32:44;;;;;;;;;;;24.60;71.50;;;;;;5043006;28;19919;-69
2022/07/31 12:35:10;;;;;;;;;;;24.50;71.80;;;;;;5044633;28;19912;-69
2022/07/31 12:37:43;;;;;;;;;;;24.50;71.80;;;;;;5052184;28;20648;-69
2022/07/31 12:40:19;;;;;;;;;;;24.50;71.60;;;;;;5043739;28;19924;-69
2022/07/31 12:42:45;;;;;;;;;;;24.60;71.20;;;;;;5044434;28;20820;-69
2022/07/31 12:45:10;;;;;;;;;;;24.60;70.80;;;;;;5044549;28;19932;-69
2022/07/31 12:47:36;;;;;;;;;;;24.70;70.80;;;;;;5043591;28;19924;-69
2022/07/31 12:50:02;;;;;;;;;;;24.70;71.00;;;;;;5040987;28;20420;-69
2022/07/31 12:52:29;;;;;;;;;;;24.70;70.80;;;;;;5045140;28;19913;-70
2022/07/31 12:54:55;;;;;;;;;;;24.60;70.20;;;;;;5038129;28;19948;-69
2022/07/31 12:57:21;;;;;;;;;;;24.60;70.80;;;;;;5043693;28;20026;-70
2022/07/31 12:59:47;;;;;;;;;;;24.60;70.20;;;;;;5045651;28;20319;-70
2022/07/31 13:02:12;;;;;;;;;;;24.70;70.10;;;;;;5046481;28;19940;-70
2022/07/31 13:04:38;;;;;;;;;;;24.90;69.70;;;;;;5045904;28;19921;-69
2022/07/31 13:07:03;;;;;;;;;;;25.00;69.00;;;;;;5048169;28;20409;-69
2022/07/31 13:09:29;;;;;;;;;;;25.20;68.70;;;;;;5048856;28;20362;-69
2022/07/31 13:11:55;;;;;;;;;;;25.30;68.50;;;;;;5049259;28;19959;-70
2022/07/31 13:14:22;;;;;;;;;;;25.30;67.90;;;;;;5044164;28;19924;-69
2022/07/31 13:16:49;;;;;;;;;;;25.20;67.90;;;;;;5046682;28;19916;-70
2022/07/31 13:19:14;;;;;;;;;;;25.20;68.10;;;;;;5047716;28;19955;-69
2022/07/31 13:21:40;;;;;;;;;;;25.20;67.50;;;;;;5046771;28;19948;-70
2022/07/31 13:24:07;;;;;;;;;;;25.30;67.80;;;;;;5061132;28;20007;-70
2022/07/31 13:26:34;;;;;;;;;;;25.50;67.60;;;;;;5062635;28;19930;-69
2022/07/31 13:28:59;;;;;;;;;;;25.70;66.70;;;;;;5048107;28;19917;-70
2022/07/31 13:31:25;;;;;;;;;;;25.80;66.20;;;;;;5046388;28;20403;-69
2022/07/31 13:33:50;;;;;;;;;;;25.80;65.80;;;;;;5049720;28;19916;-69
2022/07/31 13:36:16;;;;;;;;;;;25.80;65.90;;;;;;5049299;28;19920;-69
2022/07/31 13:38:41;;;;;;;;;;;25.80;65.80;;;;;;5050550;28;19916;-70
2022/07/31 13:41:27;;;;;;;;;;;25.80;65.40;;;;;;5045203;28;20287;-70
2022/07/31 13:43:53;;;;;;;;;;;25.70;65.90;;;;;;5041512;28;20007;-70
2022/07/31 13:46:20;;;;;;;;;;;25.60;65.70;;;;;;5048138;28;19913;-69
2022/07/31 13:48:46;;;;;;;;;;;25.60;65.90;;;;;;5046386;28;19909;-69
2022/07/31 13:51:12;;;;;;;;;;;25.80;65.90;;;;;;5050629;28;19912;-69
2022/07/31 13:53:37;;;;;;;;;;;25.90;65.80;;;;;;5048857;28;19923;-69
2022/07/31 13:56:03;;;;;;;;;;;25.90;65.70;;;;;;5045706;28;20653;-69
2022/07/31 13:58:29;;;;;;;;;;;26.00;65.70;;;;;;5045002;28;19920;-69
2022/07/31 14:00:55;;;;;;;;;;;26.10;65.30;;;;;;5045038;28;20314;-69
2022/07/31 14:03:21;;;;;;;;;;;26.10;65.10;;;;;;5045309;28;20047;-69
2022/07/31 14:05:47;;;;;;;;;;;26.20;64.90;;;;;;5042848;28;20466;-69
2022/07/31 14:08:12;;;;;;;;;;;26.20;64.40;;;;;;5048998;28;19913;-70
2022/07/31 14:10:38;;;;;;;;;;;26.40;64.40;;;;;;5063283;28;20015;-70
2022/07/31 14:13:03;;;;;;;;;;;26.50;64.40;;;;;;5051271;28;19928;-69
2022/07/31 14:15:30;;;;;;;;;;;26.50;64.20;;;;;;5048613;28;19928;-69
2022/07/31 14:17:55;;;;;;;;;;;26.40;63.80;;;;;;5048564;28;19959;-69
2022/07/31 14:20:21;;;;;;;;;;;26.30;64.10;;;;;;5047378;28;19920;-71